sensor_id;sensor_type;location;lat;lon;timestamp;P1;durP1;ratioP1;P2;durP2;ratioP2
16314;SDS011;8266;52.150;4.768;2023-12-04T00:00:00;12.30;;;9.20;;
16314;SDS011;8266;52.150;4.768;2023-12-04T00:02:29;12.23;;;9.38;;
16314;SDS011;8266;52.150;4.768;2023-12-04T00:04:56;14.00;;;9.45;;
16314;SDS011;8266;52.150;4.768;2023-12-04T00:07:25;11.77;;;8.88;;
16314;SDS011;8266;52.150;4.768;2023-12-04T00:09:53;11.18;;;8.63;;
16314;SDS011;8266;52.150;4.768;2023-12-04T00:12:20;13.82;;;9.82;;
16314;SDS011;8266;52.150;4.768;2023-12-04T00:14:48;12.00;;;9.48;;
16314;SDS011;8266;52.150;4.768;2023-12-04T00:17:15;13.02;;;9.88;;
16314;SDS011;8266;52.150;4.768;2023-12-04T00:19:43;11.57;;;9.23;;
16314;SDS011;8266;52.150;4.768;2023-12-04T00:22:10;12.43;;;9.38;;
16314;SDS011;8266;52.150;4.768;2023-12-04T00:24:39;11.80;;;8.52;;
16314;SDS011;8266;52.150;4.768;2023-12-04T00:27:06;12.20;;;8.80;;
16314;SDS011;8266;52.150;4.768;2023-12-04T00:29:33;11.68;;;9.05;;
16314;SDS011;8266;52.150;4.768;2023-12-04T00:32:00;11.43;;;8.93;;
16314;SDS011;8266;52.150;4.768;2023-12-04T00:34:28;13.10;;;9.63;;
16314;SDS011;8266;52.150;4.768;2023-12-04T00:36:55;13.25;;;9.77;;
16314;SDS011;8266;52.150;4.768;2023-12-04T00:39:22;12.18;;;9.10;;
16314;SDS011;8266;52.150;4.768;2023-12-04T00:41:50;14.00;;;9.77;;
16314;SDS011;8266;52.150;4.768;2023-12-04T00:44:17;12.18;;;9.57;;
16314;SDS011;8266;52.150;4.768;2023-12-04T00:46:44;13.73;;;9.55;;
16314;SDS011;8266;52.150;4.768;2023-12-04T00:49:11;14.48;;;10.35;;
16314;SDS011;8266;52.150;4.768;2023-12-04T00:51:39;12.60;;;8.63;;
16314;SDS011;8266;52.150;4.768;2023-12-04T00:54:06;12.82;;;9.10;;
16314;SDS011;8266;52.150;4.768;2023-12-04T00:56:33;13.60;;;9.93;;
16314;SDS011;8266;52.150;4.768;2023-12-04T00:59:01;14.90;;;10.43;;
16314;SDS011;8266;52.150;4.768;2023-12-04T01:01:28;12.32;;;8.98;;
16314;SDS011;8266;52.150;4.768;2023-12-04T01:03:56;12.90;;;10.02;;
16314;SDS011;8266;52.150;4.768;2023-12-04T01:06:25;12.60;;;9.98;;
16314;SDS011;8266;52.150;4.768;2023-12-04T01:08:52;11.68;;;8.85;;
16314;SDS011;8266;52.150;4.768;2023-12-04T01:11:22;14.80;;;10.80;;
16314;SDS011;8266;52.150;4.768;2023-12-04T01:13:49;14.43;;;10.25;;
16314;SDS011;8266;52.150;4.768;2023-12-04T01:16:18;14.80;;;10.57;;
16314;SDS011;8266;52.150;4.768;2023-12-04T01:18:45;14.55;;;9.60;;
16314;SDS011;8266;52.150;4.768;2023-12-04T01:21:13;15.43;;;10.30;;
16314;SDS011;8266;52.150;4.768;2023-12-04T01:23:41;13.07;;;10.15;;
16314;SDS011;8266;52.150;4.768;2023-12-04T01:26:09;15.57;;;11.05;;
16314;SDS011;8266;52.150;4.768;2023-12-04T01:28:37;14.68;;;10.07;;
16314;SDS011;8266;52.150;4.768;2023-12-04T01:31:04;14.82;;;10.43;;
16314;SDS011;8266;52.150;4.768;2023-12-04T01:33:33;13.60;;;9.50;;
16314;SDS011;8266;52.150;4.768;2023-12-04T01:36:01;13.93;;;9.90;;
16314;SDS011;8266;52.150;4.768;2023-12-04T01:38:28;17.38;;;11.43;;
16314;SDS011;8266;52.150;4.768;2023-12-04T01:40:56;14.45;;;10.23;;
16314;SDS011;8266;52.150;4.768;2023-12-04T01:43:23;15.38;;;10.45;;
16314;SDS011;8266;52.150;4.768;2023-12-04T01:45:50;15.85;;;10.93;;
16314;SDS011;8266;52.150;4.768;2023-12-04T01:48:18;16.48;;;11.15;;
16314;SDS011;8266;52.150;4.768;2023-12-04T01:50:47;16.30;;;10.82;;
16314;SDS011;8266;52.150;4.768;2023-12-04T01:53:15;13.38;;;10.10;;
16314;SDS011;8266;52.150;4.768;2023-12-04T01:55:43;14.40;;;9.95;;
16314;SDS011;8266;52.150;4.768;2023-12-04T01:58:10;14.95;;;10.52;;
16314;SDS011;8266;52.150;4.768;2023-12-04T02:00:37;14.63;;;10.63;;
16314;SDS011;8266;52.150;4.768;2023-12-04T02:03:05;17.15;;;10.95;;
16314;SDS011;8266;52.150;4.768;2023-12-04T02:05:34;15.25;;;10.15;;
16314;SDS011;8266;52.150;4.768;2023-12-04T02:08:03;14.35;;;9.85;;
16314;SDS011;8266;52.150;4.768;2023-12-04T02:10:31;13.63;;;10.15;;
16314;SDS011;8266;52.150;4.768;2023-12-04T02:12:58;16.02;;;10.80;;
16314;SDS011;8266;52.150;4.768;2023-12-04T02:15:27;14.52;;;10.00;;
16314;SDS011;8266;52.150;4.768;2023-12-04T02:17:54;13.90;;;9.77;;
16314;SDS011;8266;52.150;4.768;2023-12-04T02:20:30;12.52;;;9.50;;
16314;SDS011;8266;52.150;4.768;2023-12-04T02:22:58;14.40;;;10.52;;
16314;SDS011;8266;52.150;4.768;2023-12-04T02:25:26;14.60;;;10.27;;
16314;SDS011;8266;52.150;4.768;2023-12-04T02:27:54;13.50;;;9.32;;
16314;SDS011;8266;52.150;4.768;2023-12-04T02:30:26;13.38;;;10.15;;
16314;SDS011;8266;52.150;4.768;2023-12-04T02:32:57;13.98;;;9.82;;
16314;SDS011;8266;52.150;4.768;2023-12-04T02:35:26;13.40;;;8.75;;
16314;SDS011;8266;52.150;4.768;2023-12-04T02:37:55;11.57;;;8.65;;
16314;SDS011;8266;52.150;4.768;2023-12-04T02:40:26;13.80;;;9.88;;
16314;SDS011;8266;52.150;4.768;2023-12-04T02:42:54;12.52;;;10.00;;
16314;SDS011;8266;52.150;4.768;2023-12-04T02:45:21;12.50;;;9.35;;
16314;SDS011;8266;52.150;4.768;2023-12-04T02:47:48;14.65;;;9.63;;
16314;SDS011;8266;52.150;4.768;2023-12-04T02:50:16;13.30;;;9.82;;
16314;SDS011;8266;52.150;4.768;2023-12-04T02:52:43;13.10;;;9.32;;
16314;SDS011;8266;52.150;4.768;2023-12-04T02:55:10;12.40;;;9.80;;
16314;SDS011;8266;52.150;4.768;2023-12-04T02:57:39;13.57;;;10.07;;
16314;SDS011;8266;52.150;4.768;2023-12-04T03:00:07;11.20;;;8.52;;
16314;SDS011;8266;52.150;4.768;2023-12-04T03:02:35;12.88;;;9.57;;
16314;SDS011;8266;52.150;4.768;2023-12-04T03:05:03;14.45;;;9.60;;
16314;SDS011;8266;52.150;4.768;2023-12-04T03:07:30;13.38;;;9.77;;
16314;SDS011;8266;52.150;4.768;2023-12-04T03:09:57;12.48;;;9.05;;
16314;SDS011;8266;52.150;4.768;2023-12-04T03:12:24;13.68;;;10.00;;
16314;SDS011;8266;52.150;4.768;2023-12-04T03:14:53;13.23;;;9.77;;
16314;SDS011;8266;52.150;4.768;2023-12-04T03:17:20;12.00;;;9.68;;
16314;SDS011;8266;52.150;4.768;2023-12-04T03:19:47;13.00;;;9.68;;
16314;SDS011;8266;52.150;4.768;2023-12-04T03:22:15;13.73;;;9.27;;
16314;SDS011;8266;52.150;4.768;2023-12-04T03:24:43;14.05;;;9.82;;
16314;SDS011;8266;52.150;4.768;2023-12-04T03:27:09;13.52;;;9.48;;
16314;SDS011;8266;52.150;4.768;2023-12-04T03:29:36;12.85;;;8.75;;
16314;SDS011;8266;52.150;4.768;2023-12-04T03:32:05;13.52;;;9.93;;
16314;SDS011;8266;52.150;4.768;2023-12-04T03:34:32;12.50;;;9.60;;
16314;SDS011;8266;52.150;4.768;2023-12-04T03:36:59;10.98;;;8.60;;
16314;SDS011;8266;52.150;4.768;2023-12-04T03:39:26;14.25;;;9.73;;
16314;SDS011;8266;52.150;4.768;2023-12-04T03:41:53;12.50;;;9.57;;
16314;SDS011;8266;52.150;4.768;2023-12-04T03:44:20;11.80;;;9.20;;
16314;SDS011;8266;52.150;4.768;2023-12-04T03:46:48;12.02;;;9.00;;
16314;SDS011;8266;52.150;4.768;2023-12-04T03:49:17;12.02;;;9.05;;
16314;SDS011;8266;52.150;4.768;2023-12-04T03:51:44;12.30;;;9.18;;
16314;SDS011;8266;52.150;4.768;2023-12-04T03:54:11;13.38;;;9.82;;
16314;SDS011;8266;52.150;4.768;2023-12-04T03:56:39;12.48;;;9.32;;
16314;SDS011;8266;52.150;4.768;2023-12-04T03:59:08;11.52;;;8.88;;
16314;SDS011;8266;52.150;4.768;2023-12-04T04:01:36;15.73;;;10.45;;
16314;SDS011;8266;52.150;4.768;2023-12-04T04:04:03;13.05;;;9.27;;
16314;SDS011;8266;52.150;4.768;2023-12-04T04:06:31;14.55;;;9.43;;
16314;SDS011;8266;52.150;4.768;2023-12-04T04:08:58;13.45;;;9.65;;
16314;SDS011;8266;52.150;4.768;2023-12-04T04:11:25;12.73;;;9.35;;
16314;SDS011;8266;52.150;4.768;2023-12-04T04:13:52;12.15;;;9.25;;
16314;SDS011;8266;52.150;4.768;2023-12-04T04:16:19;13.02;;;9.43;;
16314;SDS011;8266;52.150;4.768;2023-12-04T04:18:46;12.75;;;9.43;;
16314;SDS011;8266;52.150;4.768;2023-12-04T04:21:13;12.68;;;9.48;;
16314;SDS011;8266;52.150;4.768;2023-12-04T04:23:42;10.40;;;8.07;;
16314;SDS011;8266;52.150;4.768;2023-12-04T04:26:09;12.75;;;9.23;;
16314;SDS011;8266;52.150;4.768;2023-12-04T04:28:36;13.70;;;9.60;;
16314;SDS011;8266;52.150;4.768;2023-12-04T04:31:03;11.13;;;8.18;;
16314;SDS011;8266;52.150;4.768;2023-12-04T04:33:30;11.05;;;8.70;;
16314;SDS011;8266;52.150;4.768;2023-12-04T04:35:57;12.32;;;8.95;;
16314;SDS011;8266;52.150;4.768;2023-12-04T04:38:25;12.48;;;8.98;;
16314;SDS011;8266;52.150;4.768;2023-12-04T04:40:53;10.40;;;8.43;;
16314;SDS011;8266;52.150;4.768;2023-12-04T04:43:20;11.98;;;8.93;;
16314;SDS011;8266;52.150;4.768;2023-12-04T04:45:47;11.57;;;8.35;;
16314;SDS011;8266;52.150;4.768;2023-12-04T04:48:14;13.57;;;9.40;;
16314;SDS011;8266;52.150;4.768;2023-12-04T04:50:41;12.00;;;8.80;;
16314;SDS011;8266;52.150;4.768;2023-12-04T04:53:08;12.15;;;9.95;;
16314;SDS011;8266;52.150;4.768;2023-12-04T04:55:35;11.65;;;8.55;;
16314;SDS011;8266;52.150;4.768;2023-12-04T04:58:03;12.68;;;9.05;;
16314;SDS011;8266;52.150;4.768;2023-12-04T05:00:31;9.80;;;8.10;;
16314;SDS011;8266;52.150;4.768;2023-12-04T05:02:58;12.40;;;9.50;;
16314;SDS011;8266;52.150;4.768;2023-12-04T05:05:25;13.57;;;8.82;;
16314;SDS011;8266;52.150;4.768;2023-12-04T05:07:52;10.93;;;8.23;;
16314;SDS011;8266;52.150;4.768;2023-12-04T05:10:19;10.95;;;8.50;;
16314;SDS011;8266;52.150;4.768;2023-12-04T05:12:46;13.20;;;9.38;;
16314;SDS011;8266;52.150;4.768;2023-12-04T05:15:14;12.70;;;8.82;;
16314;SDS011;8266;52.150;4.768;2023-12-04T05:17:41;11.77;;;8.30;;
16314;SDS011;8266;52.150;4.768;2023-12-04T05:20:08;12.23;;;8.60;;
16314;SDS011;8266;52.150;4.768;2023-12-04T05:22:36;12.50;;;9.15;;
16314;SDS011;8266;52.150;4.768;2023-12-04T05:25:04;10.57;;;8.45;;
16314;SDS011;8266;52.150;4.768;2023-12-04T05:27:31;12.10;;;8.52;;
16314;SDS011;8266;52.150;4.768;2023-12-04T05:29:59;13.13;;;9.25;;
16314;SDS011;8266;52.150;4.768;2023-12-04T05:32:29;10.40;;;7.85;;
16314;SDS011;8266;52.150;4.768;2023-12-04T05:34:56;10.15;;;8.38;;
16314;SDS011;8266;52.150;4.768;2023-12-04T05:37:23;10.93;;;8.32;;
16314;SDS011;8266;52.150;4.768;2023-12-04T05:39:50;10.65;;;8.07;;
16314;SDS011;8266;52.150;4.768;2023-12-04T05:42:17;11.90;;;7.88;;
16314;SDS011;8266;52.150;4.768;2023-12-04T05:44:44;10.63;;;8.18;;
16314;SDS011;8266;52.150;4.768;2023-12-04T05:47:11;12.13;;;8.65;;
16314;SDS011;8266;52.150;4.768;2023-12-04T05:49:41;11.52;;;8.02;;
16314;SDS011;8266;52.150;4.768;2023-12-04T05:52:08;11.20;;;9.23;;
16314;SDS011;8266;52.150;4.768;2023-12-04T05:54:35;11.88;;;8.65;;
16314;SDS011;8266;52.150;4.768;2023-12-04T05:57:02;12.73;;;8.55;;
16314;SDS011;8266;52.150;4.768;2023-12-04T05:59:29;15.10;;;9.75;;
16314;SDS011;8266;52.150;4.768;2023-12-04T06:01:56;14.02;;;10.40;;
16314;SDS011;8266;52.150;4.768;2023-12-04T06:04:25;11.18;;;8.98;;
16314;SDS011;8266;52.150;4.768;2023-12-04T06:06:53;9.70;;;8.05;;
16314;SDS011;8266;52.150;4.768;2023-12-04T06:09:20;12.25;;;8.63;;
16314;SDS011;8266;52.150;4.768;2023-12-04T06:11:47;10.68;;;8.02;;
16314;SDS011;8266;52.150;4.768;2023-12-04T06:14:14;10.88;;;8.63;;
16314;SDS011;8266;52.150;4.768;2023-12-04T06:16:41;12.75;;;9.52;;
16314;SDS011;8266;52.150;4.768;2023-12-04T06:19:08;12.52;;;8.70;;
16314;SDS011;8266;52.150;4.768;2023-12-04T06:21:35;11.93;;;9.02;;
16314;SDS011;8266;52.150;4.768;2023-12-04T06:24:04;12.98;;;9.45;;
16314;SDS011;8266;52.150;4.768;2023-12-04T06:26:33;11.73;;;8.70;;
16314;SDS011;8266;52.150;4.768;2023-12-04T06:29:02;13.77;;;9.60;;
16314;SDS011;8266;52.150;4.768;2023-12-04T06:31:30;9.85;;;8.20;;
16314;SDS011;8266;52.150;4.768;2023-12-04T06:33:57;9.52;;;7.25;;
16314;SDS011;8266;52.150;4.768;2023-12-04T06:36:25;13.25;;;8.90;;
16314;SDS011;8266;52.150;4.768;2023-12-04T06:38:53;10.40;;;8.18;;
16314;SDS011;8266;52.150;4.768;2023-12-04T06:41:24;11.68;;;8.93;;
16314;SDS011;8266;52.150;4.768;2023-12-04T06:43:51;12.93;;;9.93;;
16314;SDS011;8266;52.150;4.768;2023-12-04T06:46:19;10.35;;;8.73;;
16314;SDS011;8266;52.150;4.768;2023-12-04T06:48:47;10.57;;;8.70;;
16314;SDS011;8266;52.150;4.768;2023-12-04T06:51:17;11.90;;;8.70;;
16314;SDS011;8266;52.150;4.768;2023-12-04T06:53:44;11.45;;;8.65;;
16314;SDS011;8266;52.150;4.768;2023-12-04T06:56:10;10.80;;;8.43;;
16314;SDS011;8266;52.150;4.768;2023-12-04T06:58:39;12.02;;;8.85;;
16314;SDS011;8266;52.150;4.768;2023-12-04T07:01:06;12.82;;;9.30;;
16314;SDS011;8266;52.150;4.768;2023-12-04T07:03:35;11.23;;;8.85;;
16314;SDS011;8266;52.150;4.768;2023-12-04T07:06:02;10.65;;;8.18;;
16314;SDS011;8266;52.150;4.768;2023-12-04T07:08:29;10.98;;;8.70;;
16314;SDS011;8266;52.150;4.768;2023-12-04T07:10:56;11.25;;;8.45;;
16314;SDS011;8266;52.150;4.768;2023-12-04T07:13:23;10.43;;;8.45;;
16314;SDS011;8266;52.150;4.768;2023-12-04T07:15:51;11.57;;;8.85;;
16314;SDS011;8266;52.150;4.768;2023-12-04T07:18:18;10.40;;;8.18;;
16314;SDS011;8266;52.150;4.768;2023-12-04T07:20:45;12.43;;;9.15;;
16314;SDS011;8266;52.150;4.768;2023-12-04T07:23:12;13.50;;;8.25;;
16314;SDS011;8266;52.150;4.768;2023-12-04T07:25:40;8.77;;;7.18;;
16314;SDS011;8266;52.150;4.768;2023-12-04T07:28:07;10.38;;;8.30;;
16314;SDS011;8266;52.150;4.768;2023-12-04T07:30:34;11.00;;;8.30;;
16314;SDS011;8266;52.150;4.768;2023-12-04T07:33:03;11.20;;;8.65;;
16314;SDS011;8266;52.150;4.768;2023-12-04T07:35:30;13.60;;;9.57;;
16314;SDS011;8266;52.150;4.768;2023-12-04T07:37:57;10.13;;;8.15;;
16314;SDS011;8266;52.150;4.768;2023-12-04T07:40:24;12.75;;;8.30;;
16314;SDS011;8266;52.150;4.768;2023-12-04T07:42:51;10.85;;;8.43;;
16314;SDS011;8266;52.150;4.768;2023-12-04T07:45:18;9.80;;;7.70;;
16314;SDS011;8266;52.150;4.768;2023-12-04T07:47:46;13.20;;;9.25;;
16314;SDS011;8266;52.150;4.768;2023-12-04T07:50:15;12.10;;;9.10;;
16314;SDS011;8266;52.150;4.768;2023-12-04T07:52:42;11.55;;;8.68;;
16314;SDS011;8266;52.150;4.768;2023-12-04T07:55:09;10.90;;;8.15;;
16314;SDS011;8266;52.150;4.768;2023-12-04T07:57:36;10.55;;;8.63;;
16314;SDS011;8266;52.150;4.768;2023-12-04T08:00:03;11.38;;;9.13;;
16314;SDS011;8266;52.150;4.768;2023-12-04T08:02:31;9.65;;;8.38;;
16314;SDS011;8266;52.150;4.768;2023-12-04T08:04:58;11.00;;;8.45;;
16314;SDS011;8266;52.150;4.768;2023-12-04T08:07:26;11.57;;;8.63;;
16314;SDS011;8266;52.150;4.768;2023-12-04T08:09:53;8.98;;;7.93;;
16314;SDS011;8266;52.150;4.768;2023-12-04T08:12:21;11.15;;;8.40;;
16314;SDS011;8266;52.150;4.768;2023-12-04T08:14:48;9.30;;;7.80;;
16314;SDS011;8266;52.150;4.768;2023-12-04T08:17:15;10.38;;;8.35;;
16314;SDS011;8266;52.150;4.768;2023-12-04T08:19:43;9.55;;;8.10;;
16314;SDS011;8266;52.150;4.768;2023-12-04T08:22:10;10.77;;;8.50;;
16314;SDS011;8266;52.150;4.768;2023-12-04T08:24:39;9.90;;;7.95;;
16314;SDS011;8266;52.150;4.768;2023-12-04T08:27:07;9.52;;;7.95;;
16314;SDS011;8266;52.150;4.768;2023-12-04T08:29:34;8.68;;;7.47;;
16314;SDS011;8266;52.150;4.768;2023-12-04T08:32:01;9.05;;;7.53;;
16314;SDS011;8266;52.150;4.768;2023-12-04T08:34:28;9.30;;;7.80;;
16314;SDS011;8266;52.150;4.768;2023-12-04T08:36:55;9.65;;;7.40;;
16314;SDS011;8266;52.150;4.768;2023-12-04T08:39:22;9.70;;;7.28;;
16314;SDS011;8266;52.150;4.768;2023-12-04T08:41:50;9.73;;;6.93;;
16314;SDS011;8266;52.150;4.768;2023-12-04T08:44:17;9.45;;;7.75;;
16314;SDS011;8266;52.150;4.768;2023-12-04T08:46:44;9.05;;;7.43;;
16314;SDS011;8266;52.150;4.768;2023-12-04T08:49:12;9.77;;;6.75;;
16314;SDS011;8266;52.150;4.768;2023-12-04T08:51:39;7.97;;;7.03;;
16314;SDS011;8266;52.150;4.768;2023-12-04T08:54:06;9.52;;;7.45;;
16314;SDS011;8266;52.150;4.768;2023-12-04T08:56:33;7.60;;;6.57;;
16314;SDS011;8266;52.150;4.768;2023-12-04T08:59:02;7.70;;;6.88;;
16314;SDS011;8266;52.150;4.768;2023-12-04T09:01:29;7.95;;;6.60;;
16314;SDS011;8266;52.150;4.768;2023-12-04T09:03:56;9.55;;;8.05;;
16314;SDS011;8266;52.150;4.768;2023-12-04T09:06:23;7.70;;;6.70;;
16314;SDS011;8266;52.150;4.768;2023-12-04T09:08:50;8.63;;;6.60;;
16314;SDS011;8266;52.150;4.768;2023-12-04T09:11:17;8.52;;;6.50;;
16314;SDS011;8266;52.150;4.768;2023-12-04T09:13:44;7.55;;;6.47;;
16314;SDS011;8266;52.150;4.768;2023-12-04T09:16:12;9.00;;;6.63;;
16314;SDS011;8266;52.150;4.768;2023-12-04T09:18:40;8.30;;;6.60;;
16314;SDS011;8266;52.150;4.768;2023-12-04T09:21:07;8.23;;;6.68;;
16314;SDS011;8266;52.150;4.768;2023-12-04T09:23:34;7.97;;;6.35;;
16314;SDS011;8266;52.150;4.768;2023-12-04T09:26:01;8.40;;;6.60;;
16314;SDS011;8266;52.150;4.768;2023-12-04T09:28:28;6.80;;;5.70;;
16314;SDS011;8266;52.150;4.768;2023-12-04T09:30:55;10.05;;;6.30;;
16314;SDS011;8266;52.150;4.768;2023-12-04T09:33:24;6.97;;;5.90;;
16314;SDS011;8266;52.150;4.768;2023-12-04T09:35:51;7.10;;;5.90;;
16314;SDS011;8266;52.150;4.768;2023-12-04T09:38:18;6.32;;;5.68;;
16314;SDS011;8266;52.150;4.768;2023-12-04T09:40:46;8.07;;;6.57;;
16314;SDS011;8266;52.150;4.768;2023-12-04T09:43:13;7.60;;;6.05;;
16314;SDS011;8266;52.150;4.768;2023-12-04T09:45:40;6.53;;;5.80;;
16314;SDS011;8266;52.150;4.768;2023-12-04T09:48:08;9.30;;;6.63;;
16314;SDS011;8266;52.150;4.768;2023-12-04T09:50:37;7.13;;;6.20;;
16314;SDS011;8266;52.150;4.768;2023-12-04T09:53:05;6.60;;;5.85;;
16314;SDS011;8266;52.150;4.768;2023-12-04T09:55:36;6.55;;;5.85;;
16314;SDS011;8266;52.150;4.768;2023-12-04T09:58:03;8.32;;;6.75;;
16314;SDS011;8266;52.150;4.768;2023-12-04T10:00:31;6.95;;;5.72;;
16314;SDS011;8266;52.150;4.768;2023-12-04T10:02:59;8.27;;;6.45;;
16314;SDS011;8266;52.150;4.768;2023-12-04T10:05:27;6.63;;;5.60;;
16314;SDS011;8266;52.150;4.768;2023-12-04T10:07:55;5.93;;;5.22;;
16314;SDS011;8266;52.150;4.768;2023-12-04T10:10:24;6.38;;;5.68;;
16314;SDS011;8266;52.150;4.768;2023-12-04T10:12:50;6.65;;;5.95;;
16314;SDS011;8266;52.150;4.768;2023-12-04T10:15:18;6.82;;;6.07;;
16314;SDS011;8266;52.150;4.768;2023-12-04T10:17:45;7.70;;;6.05;;
16314;SDS011;8266;52.150;4.768;2023-12-04T10:20:12;6.65;;;5.55;;
16314;SDS011;8266;52.150;4.768;2023-12-04T10:22:51;7.85;;;6.10;;
16314;SDS011;8266;52.150;4.768;2023-12-04T10:25:21;6.95;;;5.57;;
16314;SDS011;8266;52.150;4.768;2023-12-04T10:27:49;8.70;;;5.68;;
16314;SDS011;8266;52.150;4.768;2023-12-04T10:30:24;6.22;;;5.20;;
16314;SDS011;8266;52.150;4.768;2023-12-04T10:32:56;7.20;;;5.72;;
16314;SDS011;8266;52.150;4.768;2023-12-04T10:35:25;6.95;;;5.45;;
16314;SDS011;8266;52.150;4.768;2023-12-04T10:37:55;5.90;;;5.30;;
16314;SDS011;8266;52.150;4.768;2023-12-04T10:40:24;6.43;;;5.30;;
16314;SDS011;8266;52.150;4.768;2023-12-04T10:42:57;8.82;;;6.32;;
16314;SDS011;8266;52.150;4.768;2023-12-04T10:45:37;7.70;;;6.15;;
16314;SDS011;8266;52.150;4.768;2023-12-04T10:48:05;6.10;;;5.50;;
16314;SDS011;8266;52.150;4.768;2023-12-04T10:50:33;6.68;;;5.95;;
16314;SDS011;8266;52.150;4.768;2023-12-04T10:53:01;6.97;;;5.53;;
16314;SDS011;8266;52.150;4.768;2023-12-04T10:55:30;6.82;;;5.88;;
16314;SDS011;8266;52.150;4.768;2023-12-04T10:57:58;6.70;;;5.97;;
16314;SDS011;8266;52.150;4.768;2023-12-04T11:00:28;6.53;;;5.60;;
16314;SDS011;8266;52.150;4.768;2023-12-04T11:02:58;6.55;;;5.43;;
16314;SDS011;8266;52.150;4.768;2023-12-04T11:08:53;6.68;;;5.90;;
16314;SDS011;8266;52.150;4.768;2023-12-04T11:11:26;7.82;;;5.50;;
16314;SDS011;8266;52.150;4.768;2023-12-04T11:13:58;7.43;;;5.85;;
16314;SDS011;8266;52.150;4.768;2023-12-04T11:16:29;5.80;;;5.20;;
16314;SDS011;8266;52.150;4.768;2023-12-04T11:19:03;6.55;;;5.72;;
16314;SDS011;8266;52.150;4.768;2023-12-04T11:21:35;7.03;;;6.00;;
16314;SDS011;8266;52.150;4.768;2023-12-04T11:24:03;7.32;;;5.68;;
16314;SDS011;8266;52.150;4.768;2023-12-04T11:26:33;7.63;;;5.53;;
16314;SDS011;8266;52.150;4.768;2023-12-04T11:29:01;11.80;;;6.05;;
16314;SDS011;8266;52.150;4.768;2023-12-04T11:31:29;6.70;;;5.70;;
16314;SDS011;8266;52.150;4.768;2023-12-04T11:34:00;6.72;;;5.78;;
16314;SDS011;8266;52.150;4.768;2023-12-04T11:36:28;7.18;;;5.72;;
16314;SDS011;8266;52.150;4.768;2023-12-04T11:38:55;7.45;;;5.78;;
16314;SDS011;8266;52.150;4.768;2023-12-04T11:41:23;7.05;;;6.35;;
16314;SDS011;8266;52.150;4.768;2023-12-04T11:43:52;7.38;;;6.25;;
16314;SDS011;8266;52.150;4.768;2023-12-04T11:46:22;7.38;;;6.55;;
16314;SDS011;8266;52.150;4.768;2023-12-04T11:48:50;10.18;;;7.25;;
16314;SDS011;8266;52.150;4.768;2023-12-04T11:54:16;6.90;;;5.68;;
16314;SDS011;8266;52.150;4.768;2023-12-04T11:56:56;8.00;;;6.00;;
16314;SDS011;8266;52.150;4.768;2023-12-04T11:59:26;8.35;;;6.28;;
16314;SDS011;8266;52.150;4.768;2023-12-04T12:01:54;7.88;;;6.43;;
16314;SDS011;8266;52.150;4.768;2023-12-04T12:04:22;7.55;;;6.35;;
16314;SDS011;8266;52.150;4.768;2023-12-04T12:06:49;8.63;;;6.95;;
16314;SDS011;8266;52.150;4.768;2023-12-04T12:09:16;8.45;;;7.00;;
16314;SDS011;8266;52.150;4.768;2023-12-04T12:11:45;7.93;;;7.13;;
16314;SDS011;8266;52.150;4.768;2023-12-04T12:14:12;7.97;;;6.53;;
16314;SDS011;8266;52.150;4.768;2023-12-04T12:16:41;8.05;;;6.68;;
16314;SDS011;8266;52.150;4.768;2023-12-04T12:19:08;9.18;;;6.53;;
16314;SDS011;8266;52.150;4.768;2023-12-04T12:21:35;7.30;;;6.43;;
16314;SDS011;8266;52.150;4.768;2023-12-04T12:24:05;9.18;;;6.40;;
16314;SDS011;8266;52.150;4.768;2023-12-04T12:26:32;8.13;;;7.20;;
16314;SDS011;8266;52.150;4.768;2023-12-04T12:28:59;10.38;;;7.13;;
16314;SDS011;8266;52.150;4.768;2023-12-04T12:31:26;8.35;;;7.40;;
16314;SDS011;8266;52.150;4.768;2023-12-04T12:33:57;8.07;;;6.97;;
16314;SDS011;8266;52.150;4.768;2023-12-04T12:36:24;7.97;;;7.00;;
16314;SDS011;8266;52.150;4.768;2023-12-04T12:38:52;9.25;;;6.90;;
16314;SDS011;8266;52.150;4.768;2023-12-04T12:41:21;8.88;;;7.40;;
16314;SDS011;8266;52.150;4.768;2023-12-04T12:43:51;8.45;;;7.57;;
16314;SDS011;8266;52.150;4.768;2023-12-04T12:46:18;8.13;;;7.28;;
16314;SDS011;8266;52.150;4.768;2023-12-04T12:48:46;10.55;;;7.90;;
16314;SDS011;8266;52.150;4.768;2023-12-04T12:51:15;12.23;;;7.97;;
16314;SDS011;8266;52.150;4.768;2023-12-04T12:53:43;8.07;;;7.25;;
16314;SDS011;8266;52.150;4.768;2023-12-04T12:56:11;8.57;;;7.57;;
16314;SDS011;8266;52.150;4.768;2023-12-04T12:58:38;8.50;;;7.60;;
16314;SDS011;8266;52.150;4.768;2023-12-04T13:01:05;9.18;;;7.90;;
16314;SDS011;8266;52.150;4.768;2023-12-04T13:03:36;9.38;;;7.10;;
16314;SDS011;8266;52.150;4.768;2023-12-04T13:06:04;8.98;;;7.97;;
16314;SDS011;8266;52.150;4.768;2023-12-04T13:08:33;11.77;;;8.48;;
16314;SDS011;8266;52.150;4.768;2023-12-04T13:11:00;9.32;;;7.90;;
16314;SDS011;8266;52.150;4.768;2023-12-04T13:13:27;9.52;;;8.52;;
16314;SDS011;8266;52.150;4.768;2023-12-04T13:15:57;9.18;;;7.85;;
16314;SDS011;8266;52.150;4.768;2023-12-04T13:18:24;11.48;;;8.00;;
16314;SDS011;8266;52.150;4.768;2023-12-04T13:20:51;10.60;;;8.32;;
16314;SDS011;8266;52.150;4.768;2023-12-04T13:23:18;9.55;;;8.13;;
16314;SDS011;8266;52.150;4.768;2023-12-04T13:25:46;9.77;;;8.10;;
16314;SDS011;8266;52.150;4.768;2023-12-04T13:28:13;10.07;;;8.80;;
16314;SDS011;8266;52.150;4.768;2023-12-04T13:30:40;10.90;;;9.00;;
16314;SDS011;8266;52.150;4.768;2023-12-04T13:33:07;10.57;;;9.02;;
16314;SDS011;8266;52.150;4.768;2023-12-04T13:35:35;10.15;;;9.00;;
16314;SDS011;8266;52.150;4.768;2023-12-04T13:38:02;9.07;;;8.18;;
16314;SDS011;8266;52.150;4.768;2023-12-04T13:40:32;10.70;;;8.70;;
16314;SDS011;8266;52.150;4.768;2023-12-04T13:43:02;11.10;;;8.60;;
16314;SDS011;8266;52.150;4.768;2023-12-04T13:45:47;11.95;;;8.95;;
16314;SDS011;8266;52.150;4.768;2023-12-04T13:48:14;11.05;;;9.02;;
16314;SDS011;8266;52.150;4.768;2023-12-04T13:50:43;10.23;;;9.10;;
16314;SDS011;8266;52.150;4.768;2023-12-04T13:53:10;10.95;;;9.40;;
16314;SDS011;8266;52.150;4.768;2023-12-04T13:55:40;9.55;;;8.55;;
16314;SDS011;8266;52.150;4.768;2023-12-04T13:58:27;9.60;;;8.48;;
16314;SDS011;8266;52.150;4.768;2023-12-04T14:01:06;11.25;;;9.30;;
16314;SDS011;8266;52.150;4.768;2023-12-04T14:03:39;11.52;;;8.80;;
16314;SDS011;8266;52.150;4.768;2023-12-04T14:06:07;9.65;;;8.65;;
16314;SDS011;8266;52.150;4.768;2023-12-04T14:08:34;10.93;;;9.10;;
16314;SDS011;8266;52.150;4.768;2023-12-04T14:11:02;10.10;;;9.05;;
16314;SDS011;8266;52.150;4.768;2023-12-04T14:13:31;11.60;;;9.60;;
16314;SDS011;8266;52.150;4.768;2023-12-04T14:15:59;9.65;;;8.68;;
16314;SDS011;8266;52.150;4.768;2023-12-04T14:18:26;11.85;;;9.50;;
16314;SDS011;8266;52.150;4.768;2023-12-04T14:20:55;10.50;;;9.05;;
16314;SDS011;8266;52.150;4.768;2023-12-04T14:23:23;9.73;;;8.70;;
16314;SDS011;8266;52.150;4.768;2023-12-04T14:25:50;9.95;;;8.90;;
16314;SDS011;8266;52.150;4.768;2023-12-04T14:28:17;11.65;;;9.82;;
16314;SDS011;8266;52.150;4.768;2023-12-04T14:30:46;9.40;;;8.50;;
16314;SDS011;8266;52.150;4.768;2023-12-04T14:33:13;10.75;;;8.90;;
16314;SDS011;8266;52.150;4.768;2023-12-04T14:35:40;9.80;;;8.70;;
16314;SDS011;8266;52.150;4.768;2023-12-04T14:38:08;11.65;;;9.02;;
16314;SDS011;8266;52.150;4.768;2023-12-04T14:40:35;11.27;;;9.05;;
16314;SDS011;8266;52.150;4.768;2023-12-04T14:43:02;10.35;;;8.98;;
16314;SDS011;8266;52.150;4.768;2023-12-04T14:45:30;12.15;;;8.98;;
16314;SDS011;8266;52.150;4.768;2023-12-04T14:48:00;11.18;;;9.18;;
16314;SDS011;8266;52.150;4.768;2023-12-04T14:50:27;11.13;;;8.98;;
16314;SDS011;8266;52.150;4.768;2023-12-04T14:52:54;9.90;;;8.77;;
16314;SDS011;8266;52.150;4.768;2023-12-04T14:55:22;11.00;;;9.30;;
16314;SDS011;8266;52.150;4.768;2023-12-04T14:58:24;9.88;;;8.85;;
16314;SDS011;8266;52.150;4.768;2023-12-04T15:01:08;10.82;;;9.38;;